ซานฟรานซิสโก, CA

03:35 AM PST วัน ธันวาคม 03, 2016 (GMT -0800)
SOMA | | Change Station

Elev 23 ft 37.78 °N, 122.41 °W | Updated 6 seconds ago

Clear
ท้องฟ้าแจ่มใส
49.6 ฟาเรนไฮน์
Feels Like 50 ฟาเรนไฮน์
N
0.0
ลม ความผันแปร ลม from ทางทิศเหนือ
Gusts 0.0 mph

วันนี้
High -- | Low -- ฟาเรนไฮน์
--% Chance of Precip.
Yesterday
High -- | Low -- ฟาเรนไฮน์
Precip. -- นิ้ว
ความดัน 30.23 นิ้ว
ทัศนวิสัย 10.0 ไมล์
เมฆ ท้องฟ้าแจ่มใส
ลมหนาว 50 ฟาเรนไฮน์
อุณหภูมิที่อากาศอาจจับตัวเป็นหยาดน้ำค้าง 41 ฟาเรนไฮน์
ความชื้น 73%
Rainfall 0.00 นิ้ว
Snow Depth Not available.
7:08 AM 4:50 PM
เดือนเสี้ยว, 14% visible
METAR KSFO 031056Z 17003KT 10SM CLR 09/04 A3023 RMK AO2 SLP237 T00890039
ความดัน 30.23 นิ้ว
ทัศนวิสัย 10.0 ไมล์
เมฆ ท้องฟ้าแจ่มใส
ลมหนาว 50 ฟาเรนไฮน์
อุณหภูมิที่อากาศอาจจับตัวเป็นหยาดน้ำค้าง 41 ฟาเรนไฮน์
ความชื้น 73%
Rainfall 0.00 นิ้ว
Snow Depth Not available.
7:08 AM 4:50 PM
เดือนเสี้ยว, 14% visible
METAR KSFO 031056Z 17003KT 10SM CLR 09/04 A3023 RMK AO2 SLP237 T00890039

10-Day Weather Forecast

Almanac

ดาราศาสตร์

Dec. 03, 2016 Rise Set
Actual Time
Civil Twilight
Nautical Twilight
Astronomical Twilight
Moon
Length Of Visible Light
ความยาวของวัน
Tomorrow will be .
, % of the Moon is Illuminated

Today's Extremes

State Highs State Lows

Community

WunderPhotos

Upload Photos

1,955,431 photos uploaded!

WunderBlog® & News

Nearby

Air Quality

  Air Quality AQ Index Pollutant
Not available.

Snow Depth

Station Depth Elevation

Earthquake Activity

City Distance Mag. Time & Date
Minimum magnitude displayed is 2.5.

Coastal Water Temperatures

สถานที่ อุณหภูมิ

Stations

Nearby Weather Stations

Station Location Temp ลมหนาว อุณหภูมิที่อากาศอาจจับตัวเป็นหยาดน้ำค้าง ความชื้น ลม Precip. Elev ปรับปรุงล่าสุด Type
                   

Watches & Warnings

There are currently no watches in effect.